Loco Hills, New Mexico
Current Conditions -  °F | °C
As of 4:53 AM on Thursday 23 Oct 2014 (Local Time) from KCNM Reporting Station
Moderate Fog Moderate Fog  
Wind Chill: 60°   Ceiling: 200
Heat Index: 60°   Visibility: 0.25mi
Dew Point: 59°   Wind: 5mph
Humidity: 96%   Direction: 150°SSE
Pressure: 30.1"   Gusts: NA
Location:  32.82°N, 103.98°W
Report Text: KCNM 231053Z AUTO 15004KT 1/4SM FG VV002 16/15 A3010 RMK AO2 SLP150 T01560150 $
Loading
Personal Weather Stations






























Interactive Weather Map
Tropical Storm Tracking
New forecast layout! Learn more

10-Day Weather Forecast

Advertisements
Track Severe Weather on mobile